sensor_id;sensor_type;location;lat;lon;timestamp;temperature;humidity
23671;DHT22;12012;51.998;7.614;2022-11-28T00:03:44;6.70;73.00
23671;DHT22;12012;51.998;7.614;2022-11-28T00:06:10;6.70;73.30
23671;DHT22;12012;51.998;7.614;2022-11-28T00:08:36;6.70;72.30
23671;DHT22;12012;51.998;7.614;2022-11-28T00:11:03;6.70;72.10
23671;DHT22;12012;51.998;7.614;2022-11-28T00:13:29;6.70;72.30
23671;DHT22;12012;51.998;7.614;2022-11-28T00:15:59;6.70;72.20
23671;DHT22;12012;51.998;7.614;2022-11-28T00:18:26;6.80;71.90
23671;DHT22;12012;51.998;7.614;2022-11-28T00:20:52;6.80;71.90
23671;DHT22;12012;51.998;7.614;2022-11-28T00:23:17;6.80;71.90
23671;DHT22;12012;51.998;7.614;2022-11-28T00:25:43;6.80;71.60
23671;DHT22;12012;51.998;7.614;2022-11-28T00:28:08;6.80;71.50
23671;DHT22;12012;51.998;7.614;2022-11-28T00:30:37;6.90;70.90
23671;DHT22;12012;51.998;7.614;2022-11-28T00:33:03;6.90;69.50
23671;DHT22;12012;51.998;7.614;2022-11-28T00:35:29;6.90;68.50
23671;DHT22;12012;51.998;7.614;2022-11-28T00:37:55;6.90;67.20
23671;DHT22;12012;51.998;7.614;2022-11-28T00:40:20;6.90;66.80
23671;DHT22;12012;51.998;7.614;2022-11-28T00:42:46;6.90;66.90
23671;DHT22;12012;51.998;7.614;2022-11-28T00:45:11;7.00;66.60
23671;DHT22;12012;51.998;7.614;2022-11-28T00:47:37;7.00;65.90
23671;DHT22;12012;51.998;7.614;2022-11-28T00:50:03;7.00;65.30
23671;DHT22;12012;51.998;7.614;2022-11-28T00:52:31;7.00;66.30
23671;DHT22;12012;51.998;7.614;2022-11-28T00:54:57;7.00;66.20
23671;DHT22;12012;51.998;7.614;2022-11-28T00:57:22;7.00;65.30
23671;DHT22;12012;51.998;7.614;2022-11-28T00:59:48;7.00;64.90
23671;DHT22;12012;51.998;7.614;2022-11-28T01:02:13;7.00;65.10
23671;DHT22;12012;51.998;7.614;2022-11-28T01:04:39;7.00;65.60
23671;DHT22;12012;51.998;7.614;2022-11-28T01:07:04;7.00;65.10
23671;DHT22;12012;51.998;7.614;2022-11-28T01:09:30;7.00;64.80
23671;DHT22;12012;51.998;7.614;2022-11-28T01:11:55;7.00;65.20
23671;DHT22;12012;51.998;7.614;2022-11-28T01:14:23;7.10;65.50
23671;DHT22;12012;51.998;7.614;2022-11-28T01:16:49;7.10;65.20
23671;DHT22;12012;51.998;7.614;2022-11-28T01:19:14;7.10;65.10
23671;DHT22;12012;51.998;7.614;2022-11-28T01:21:40;7.10;66.20
23671;DHT22;12012;51.998;7.614;2022-11-28T01:24:06;7.10;65.60
23671;DHT22;12012;51.998;7.614;2022-11-28T01:26:32;7.10;66.30
23671;DHT22;12012;51.998;7.614;2022-11-28T01:28:59;7.10;65.70
23671;DHT22;12012;51.998;7.614;2022-11-28T01:31:27;7.10;66.10
23671;DHT22;12012;51.998;7.614;2022-11-28T01:33:53;7.10;66.00
23671;DHT22;12012;51.998;7.614;2022-11-28T01:36:19;7.10;65.50
23671;DHT22;12012;51.998;7.614;2022-11-28T01:38:45;7.10;64.70
23671;DHT22;12012;51.998;7.614;2022-11-28T01:41:11;7.10;65.40
23671;DHT22;12012;51.998;7.614;2022-11-28T01:43:54;7.10;65.10
23671;DHT22;12012;51.998;7.614;2022-11-28T01:46:20;7.20;65.30
23671;DHT22;12012;51.998;7.614;2022-11-28T01:48:46;7.20;65.40
23671;DHT22;12012;51.998;7.614;2022-11-28T01:51:12;7.10;65.40
23671;DHT22;12012;51.998;7.614;2022-11-28T01:53:42;7.10;65.50
23671;DHT22;12012;51.998;7.614;2022-11-28T01:56:13;7.10;66.10
23671;DHT22;12012;51.998;7.614;2022-11-28T01:58:42;7.10;66.20
23671;DHT22;12012;51.998;7.614;2022-11-28T02:01:10;7.10;66.60
23671;DHT22;12012;51.998;7.614;2022-11-28T02:03:44;7.10;67.20
23671;DHT22;12012;51.998;7.614;2022-11-28T02:06:13;7.10;67.70
23671;DHT22;12012;51.998;7.614;2022-11-28T02:08:38;7.10;67.80
23671;DHT22;12012;51.998;7.614;2022-11-28T02:16:51;7.10;68.70
23671;DHT22;12012;51.998;7.614;2022-11-28T02:22:04;7.00;70.10
23671;DHT22;12012;51.998;7.614;2022-11-28T02:30:28;6.90;72.60
23671;DHT22;12012;51.998;7.614;2022-11-28T02:33:00;6.90;73.10
23671;DHT22;12012;51.998;7.614;2022-11-28T02:38:18;6.80;77.00
23671;DHT22;12012;51.998;7.614;2022-11-28T02:48:56;6.70;78.40
23671;DHT22;12012;51.998;7.614;2022-11-28T02:54:02;6.70;81.30
23671;DHT22;12012;51.998;7.614;2022-11-28T02:56:28;6.70;81.40
23671;DHT22;12012;51.998;7.614;2022-11-28T02:58:54;6.70;83.60
23671;DHT22;12012;51.998;7.614;2022-11-28T03:01:29;6.70;86.00
23671;DHT22;12012;51.998;7.614;2022-11-28T03:04:05;6.70;87.30
23671;DHT22;12012;51.998;7.614;2022-11-28T03:06:52;6.70;87.70
23671;DHT22;12012;51.998;7.614;2022-11-28T03:09:41;6.70;88.60
23671;DHT22;12012;51.998;7.614;2022-11-28T03:14:55;6.70;89.80
23671;DHT22;12012;51.998;7.614;2022-11-28T03:23:06;6.70;88.60
23671;DHT22;12012;51.998;7.614;2022-11-28T03:28:29;6.70;89.40
23671;DHT22;12012;51.998;7.614;2022-11-28T03:31:05;6.70;88.80
23671;DHT22;12012;51.998;7.614;2022-11-28T03:33:37;6.70;90.50
23671;DHT22;12012;51.998;7.614;2022-11-28T03:36:07;6.80;90.20
23671;DHT22;12012;51.998;7.614;2022-11-28T03:38:39;6.70;90.10
23671;DHT22;12012;51.998;7.614;2022-11-28T03:41:18;6.70;90.50
23671;DHT22;12012;51.998;7.614;2022-11-28T03:43:50;6.80;89.30
23671;DHT22;12012;51.998;7.614;2022-11-28T03:46:17;6.80;90.70
23671;DHT22;12012;51.998;7.614;2022-11-28T03:48:48;6.80;89.60
23671;DHT22;12012;51.998;7.614;2022-11-28T03:51:21;6.80;89.10
23671;DHT22;12012;51.998;7.614;2022-11-28T03:59:27;6.80;89.90
23671;DHT22;12012;51.998;7.614;2022-11-28T04:08:26;6.80;88.30
23671;DHT22;12012;51.998;7.614;2022-11-28T04:13:22;6.80;89.80
23671;DHT22;12012;51.998;7.614;2022-11-28T04:16:16;6.80;89.60
23671;DHT22;12012;51.998;7.614;2022-11-28T04:19:10;6.80;90.50
23671;DHT22;12012;51.998;7.614;2022-11-28T04:21:42;6.80;90.10
23671;DHT22;12012;51.998;7.614;2022-11-28T04:24:18;6.80;90.70
23671;DHT22;12012;51.998;7.614;2022-11-28T04:26:59;6.70;91.30
23671;DHT22;12012;51.998;7.614;2022-11-28T04:29:29;6.70;92.80
23671;DHT22;12012;51.998;7.614;2022-11-28T04:31:56;6.70;92.10
23671;DHT22;12012;51.998;7.614;2022-11-28T04:34:23;6.70;91.70
23671;DHT22;12012;51.998;7.614;2022-11-28T04:36:51;6.70;91.90
23671;DHT22;12012;51.998;7.614;2022-11-28T04:39:21;6.70;91.10
23671;DHT22;12012;51.998;7.614;2022-11-28T04:41:52;6.70;91.10
23671;DHT22;12012;51.998;7.614;2022-11-28T04:44:35;6.70;92.70
23671;DHT22;12012;51.998;7.614;2022-11-28T04:47:00;6.70;91.20
23671;DHT22;12012;51.998;7.614;2022-11-28T04:49:28;6.70;91.40
23671;DHT22;12012;51.998;7.614;2022-11-28T04:57:51;6.70;92.10
23671;DHT22;12012;51.998;7.614;2022-11-28T05:00:19;6.70;92.70
23671;DHT22;12012;51.998;7.614;2022-11-28T05:02:49;6.70;94.20
23671;DHT22;12012;51.998;7.614;2022-11-28T05:05:19;6.70;94.90
23671;DHT22;12012;51.998;7.614;2022-11-28T05:07:45;6.70;96.40
23671;DHT22;12012;51.998;7.614;2022-11-28T05:10:11;6.60;95.90
23671;DHT22;12012;51.998;7.614;2022-11-28T05:12:37;6.60;95.70
23671;DHT22;12012;51.998;7.614;2022-11-28T05:15:04;6.60;94.40
23671;DHT22;12012;51.998;7.614;2022-11-28T05:17:30;6.60;95.70
23671;DHT22;12012;51.998;7.614;2022-11-28T05:19:55;6.60;95.70
23671;DHT22;12012;51.998;7.614;2022-11-28T05:22:21;6.60;96.60
23671;DHT22;12012;51.998;7.614;2022-11-28T05:24:47;6.60;96.50
23671;DHT22;12012;51.998;7.614;2022-11-28T05:27:12;6.60;97.00
23671;DHT22;12012;51.998;7.614;2022-11-28T05:29:38;6.60;97.40
23671;DHT22;12012;51.998;7.614;2022-11-28T05:32:08;6.50;96.20
23671;DHT22;12012;51.998;7.614;2022-11-28T05:34:34;6.50;96.90
23671;DHT22;12012;51.998;7.614;2022-11-28T05:37:00;6.50;96.50
23671;DHT22;12012;51.998;7.614;2022-11-28T05:39:25;6.50;96.30
23671;DHT22;12012;51.998;7.614;2022-11-28T05:41:53;6.50;96.50
23671;DHT22;12012;51.998;7.614;2022-11-28T05:44:19;6.50;97.80
23671;DHT22;12012;51.998;7.614;2022-11-28T05:46:44;6.50;98.30
23671;DHT22;12012;51.998;7.614;2022-11-28T05:49:10;6.50;98.10
23671;DHT22;12012;51.998;7.614;2022-11-28T05:51:36;6.50;98.20
23671;DHT22;12012;51.998;7.614;2022-11-28T05:54:01;6.50;99.30
23671;DHT22;12012;51.998;7.614;2022-11-28T05:56:27;6.50;98.20
23671;DHT22;12012;51.998;7.614;2022-11-28T05:58:52;6.50;99.40
23671;DHT22;12012;51.998;7.614;2022-11-28T06:01:21;6.50;98.90
23671;DHT22;12012;51.998;7.614;2022-11-28T06:03:47;6.50;99.80
23671;DHT22;12012;51.998;7.614;2022-11-28T06:08:40;6.50;98.80
23671;DHT22;12012;51.998;7.614;2022-11-28T06:11:07;6.50;98.20
23671;DHT22;12012;51.998;7.614;2022-11-28T06:13:33;6.50;97.90
23671;DHT22;12012;51.998;7.614;2022-11-28T06:15:58;6.50;98.70
23671;DHT22;12012;51.998;7.614;2022-11-28T06:18:24;6.50;98.00
23671;DHT22;12012;51.998;7.614;2022-11-28T06:20:49;6.50;98.00
23671;DHT22;12012;51.998;7.614;2022-11-28T06:23:15;6.50;97.40
23671;DHT22;12012;51.998;7.614;2022-11-28T06:25:40;6.50;98.00
23671;DHT22;12012;51.998;7.614;2022-11-28T06:28:06;6.50;97.90
23671;DHT22;12012;51.998;7.614;2022-11-28T06:30:32;6.50;98.70
23671;DHT22;12012;51.998;7.614;2022-11-28T06:32:57;6.50;99.00
23671;DHT22;12012;51.998;7.614;2022-11-28T06:35:23;6.50;98.50
23671;DHT22;12012;51.998;7.614;2022-11-28T06:37:48;6.50;99.20
23671;DHT22;12012;51.998;7.614;2022-11-28T06:40:14;6.50;99.90
23671;DHT22;12012;51.998;7.614;2022-11-28T06:42:39;6.50;99.90
23671;DHT22;12012;51.998;7.614;2022-11-28T06:45:05;6.50;99.90
23671;DHT22;12012;51.998;7.614;2022-11-28T06:47:31;6.50;99.90
23671;DHT22;12012;51.998;7.614;2022-11-28T06:49:56;6.50;99.90
23671;DHT22;12012;51.998;7.614;2022-11-28T06:52:22;6.50;99.90
23671;DHT22;12012;51.998;7.614;2022-11-28T06:54:48;6.50;99.90
23671;DHT22;12012;51.998;7.614;2022-11-28T06:57:13;6.50;99.90
23671;DHT22;12012;51.998;7.614;2022-11-28T06:59:39;6.50;99.90
23671;DHT22;12012;51.998;7.614;2022-11-28T07:02:05;6.50;99.90
23671;DHT22;12012;51.998;7.614;2022-11-28T07:04:30;6.50;99.90
23671;DHT22;12012;51.998;7.614;2022-11-28T07:06:56;6.50;99.90
23671;DHT22;12012;51.998;7.614;2022-11-28T07:09:22;6.50;99.90
23671;DHT22;12012;51.998;7.614;2022-11-28T07:11:48;6.50;99.90
23671;DHT22;12012;51.998;7.614;2022-11-28T07:14:13;6.50;99.90
23671;DHT22;12012;51.998;7.614;2022-11-28T07:16:39;6.50;99.90
23671;DHT22;12012;51.998;7.614;2022-11-28T07:19:04;6.50;99.90
23671;DHT22;12012;51.998;7.614;2022-11-28T07:21:30;6.50;99.90
23671;DHT22;12012;51.998;7.614;2022-11-28T07:23:58;6.50;99.90
23671;DHT22;12012;51.998;7.614;2022-11-28T07:26:24;6.50;99.80
23671;DHT22;12012;51.998;7.614;2022-11-28T07:28:50;6.50;99.90
23671;DHT22;12012;51.998;7.614;2022-11-28T07:31:17;6.50;99.90
23671;DHT22;12012;51.998;7.614;2022-11-28T07:33:46;6.50;99.50
23671;DHT22;12012;51.998;7.614;2022-11-28T07:36:14;6.50;99.80
23671;DHT22;12012;51.998;7.614;2022-11-28T07:38:40;6.40;99.90
23671;DHT22;12012;51.998;7.614;2022-11-28T07:41:09;6.50;99.90
23671;DHT22;12012;51.998;7.614;2022-11-28T07:43:35;6.50;99.90
23671;DHT22;12012;51.998;7.614;2022-11-28T07:46:08;6.50;99.90
23671;DHT22;12012;51.998;7.614;2022-11-28T07:48:34;6.40;99.90
23671;DHT22;12012;51.998;7.614;2022-11-28T07:51:07;6.40;99.90
23671;DHT22;12012;51.998;7.614;2022-11-28T07:53:34;6.40;99.90
23671;DHT22;12012;51.998;7.614;2022-11-28T07:56:01;6.40;99.90
23671;DHT22;12012;51.998;7.614;2022-11-28T07:58:28;6.50;99.80
23671;DHT22;12012;51.998;7.614;2022-11-28T08:00:53;6.50;99.90
23671;DHT22;12012;51.998;7.614;2022-11-28T08:03:19;6.50;99.40
23671;DHT22;12012;51.998;7.614;2022-11-28T08:05:44;6.50;99.70
23671;DHT22;12012;51.998;7.614;2022-11-28T08:08:15;6.50;99.50
23671;DHT22;12012;51.998;7.614;2022-11-28T08:10:41;6.60;99.80
23671;DHT22;12012;51.998;7.614;2022-11-28T08:13:07;6.60;99.50
23671;DHT22;12012;51.998;7.614;2022-11-28T08:15:32;6.60;99.60
23671;DHT22;12012;51.998;7.614;2022-11-28T08:18:00;6.60;99.70
23671;DHT22;12012;51.998;7.614;2022-11-28T08:20:26;6.60;99.90
23671;DHT22;12012;51.998;7.614;2022-11-28T08:22:51;6.60;99.30
23671;DHT22;12012;51.998;7.614;2022-11-28T08:25:17;6.60;99.40
23671;DHT22;12012;51.998;7.614;2022-11-28T08:27:42;6.60;99.30
23671;DHT22;12012;51.998;7.614;2022-11-28T08:30:08;6.70;99.60
23671;DHT22;12012;51.998;7.614;2022-11-28T08:32:34;6.70;99.60
23671;DHT22;12012;51.998;7.614;2022-11-28T08:34:59;6.70;99.30
23671;DHT22;12012;51.998;7.614;2022-11-28T08:37:26;6.70;99.10
23671;DHT22;12012;51.998;7.614;2022-11-28T08:39:52;6.80;99.30
23671;DHT22;12012;51.998;7.614;2022-11-28T08:42:17;6.80;99.50
23671;DHT22;12012;51.998;7.614;2022-11-28T08:44:43;6.80;99.10
23671;DHT22;12012;51.998;7.614;2022-11-28T08:47:08;6.90;98.80
23671;DHT22;12012;51.998;7.614;2022-11-28T08:49:35;6.90;98.90
23671;DHT22;12012;51.998;7.614;2022-11-28T08:52:02;6.90;98.60
23671;DHT22;12012;51.998;7.614;2022-11-28T08:54:28;7.00;98.80
23671;DHT22;12012;51.998;7.614;2022-11-28T08:56:54;7.00;98.50
23671;DHT22;12012;51.998;7.614;2022-11-28T08:59:19;7.00;98.40
23671;DHT22;12012;51.998;7.614;2022-11-28T09:01:45;7.00;98.20
23671;DHT22;12012;51.998;7.614;2022-11-28T09:04:10;7.10;98.80
23671;DHT22;12012;51.998;7.614;2022-11-28T09:06:39;7.10;98.60
23671;DHT22;12012;51.998;7.614;2022-11-28T09:09:05;7.10;98.20
23671;DHT22;12012;51.998;7.614;2022-11-28T09:11:31;7.20;98.20
23671;DHT22;12012;51.998;7.614;2022-11-28T09:13:56;7.30;98.20
23671;DHT22;12012;51.998;7.614;2022-11-28T09:16:23;7.30;98.00
23671;DHT22;12012;51.998;7.614;2022-11-28T09:18:49;7.30;98.00
23671;DHT22;12012;51.998;7.614;2022-11-28T09:21:15;7.30;97.80
23671;DHT22;12012;51.998;7.614;2022-11-28T09:23:42;7.40;97.80
23671;DHT22;12012;51.998;7.614;2022-11-28T09:26:10;7.40;97.80
23671;DHT22;12012;51.998;7.614;2022-11-28T09:28:36;7.40;97.60
23671;DHT22;12012;51.998;7.614;2022-11-28T09:31:03;7.40;97.40
23671;DHT22;12012;51.998;7.614;2022-11-28T09:33:29;7.40;96.70
23671;DHT22;12012;51.998;7.614;2022-11-28T09:35:55;7.40;97.10
23671;DHT22;12012;51.998;7.614;2022-11-28T09:38:21;7.40;97.10
23671;DHT22;12012;51.998;7.614;2022-11-28T09:40:47;7.40;97.10
23671;DHT22;12012;51.998;7.614;2022-11-28T09:43:32;7.40;96.60
23671;DHT22;12012;51.998;7.614;2022-11-28T09:46:02;7.40;96.80
23671;DHT22;12012;51.998;7.614;2022-11-28T09:48:38;7.40;97.10
23671;DHT22;12012;51.998;7.614;2022-11-28T09:51:24;7.50;97.20
23671;DHT22;12012;51.998;7.614;2022-11-28T09:56:53;7.60;97.20
23671;DHT22;12012;51.998;7.614;2022-11-28T09:59:26;7.60;96.80
23671;DHT22;12012;51.998;7.614;2022-11-28T10:02:18;7.70;96.80
23671;DHT22;12012;51.998;7.614;2022-11-28T10:04:56;7.70;96.60
23671;DHT22;12012;51.998;7.614;2022-11-28T10:10:30;7.80;96.50
23671;DHT22;12012;51.998;7.614;2022-11-28T10:13:38;7.80;96.10
23671;DHT22;12012;51.998;7.614;2022-11-28T10:16:21;7.80;96.20
23671;DHT22;12012;51.998;7.614;2022-11-28T10:18:58;7.90;96.20
23671;DHT22;12012;51.998;7.614;2022-11-28T10:21:45;7.90;96.10
23671;DHT22;12012;51.998;7.614;2022-11-28T10:24:17;7.90;96.00
23671;DHT22;12012;51.998;7.614;2022-11-28T10:26:57;7.90;95.80
23671;DHT22;12012;51.998;7.614;2022-11-28T10:32:03;8.00;95.80
23671;DHT22;12012;51.998;7.614;2022-11-28T10:34:46;8.00;95.80
23671;DHT22;12012;51.998;7.614;2022-11-28T10:37:31;8.10;95.50
23671;DHT22;12012;51.998;7.614;2022-11-28T10:40:36;8.10;95.50
23671;DHT22;12012;51.998;7.614;2022-11-28T10:57:47;8.20;95.30
23671;DHT22;12012;51.998;7.614;2022-11-28T11:00:18;8.30;95.10
23671;DHT22;12012;51.998;7.614;2022-11-28T11:02:51;8.30;95.00
23671;DHT22;12012;51.998;7.614;2022-11-28T11:05:26;8.30;94.90
23671;DHT22;12012;51.998;7.614;2022-11-28T11:10:33;8.40;94.90
23671;DHT22;12012;51.998;7.614;2022-11-28T11:13:12;8.40;94.90
23671;DHT22;12012;51.998;7.614;2022-11-28T11:15:39;8.50;94.50
23671;DHT22;12012;51.998;7.614;2022-11-28T11:18:20;8.50;92.70
23671;DHT22;12012;51.998;7.614;2022-11-28T11:20:46;8.50;94.00
23671;DHT22;12012;51.998;7.614;2022-11-28T11:23:20;8.50;94.00
23671;DHT22;12012;51.998;7.614;2022-11-28T11:25:52;8.50;94.20
23671;DHT22;12012;51.998;7.614;2022-11-28T11:31:03;8.60;94.10
23671;DHT22;12012;51.998;7.614;2022-11-28T11:33:33;8.60;94.20
23671;DHT22;12012;51.998;7.614;2022-11-28T11:35:59;8.60;93.50
23671;DHT22;12012;51.998;7.614;2022-11-28T11:38:28;8.60;93.20
23671;DHT22;12012;51.998;7.614;2022-11-28T11:40:54;8.60;93.00
23671;DHT22;12012;51.998;7.614;2022-11-28T11:43:31;8.60;93.10
23671;DHT22;12012;51.998;7.614;2022-11-28T11:46:09;8.60;93.10
23671;DHT22;12012;51.998;7.614;2022-11-28T11:48:43;8.50;92.80
23671;DHT22;12012;51.998;7.614;2022-11-28T11:51:26;8.50;92.50
23671;DHT22;12012;51.998;7.614;2022-11-28T11:54:16;8.50;92.50
23671;DHT22;12012;51.998;7.614;2022-11-28T11:56:45;8.50;92.70
23671;DHT22;12012;51.998;7.614;2022-11-28T11:59:19;8.50;92.80
23671;DHT22;12012;51.998;7.614;2022-11-28T12:01:50;8.40;92.40
23671;DHT22;12012;51.998;7.614;2022-11-28T12:04:26;8.50;92.60
23671;DHT22;12012;51.998;7.614;2022-11-28T12:06:57;8.50;92.60
23671;DHT22;12012;51.998;7.614;2022-11-28T12:09:43;8.50;92.50
23671;DHT22;12012;51.998;7.614;2022-11-28T12:12:11;8.40;92.40
23671;DHT22;12012;51.998;7.614;2022-11-28T12:14:38;8.40;92.60
23671;DHT22;12012;51.998;7.614;2022-11-28T12:30:52;8.50;92.90
23671;DHT22;12012;51.998;7.614;2022-11-28T12:33:32;8.40;92.80
23671;DHT22;12012;51.998;7.614;2022-11-28T12:36:05;8.50;92.80
23671;DHT22;12012;51.998;7.614;2022-11-28T12:46:46;8.50;92.30
23671;DHT22;12012;51.998;7.614;2022-11-28T12:49:26;8.50;92.80
23671;DHT22;12012;51.998;7.614;2022-11-28T13:00:04;8.60;92.90
23671;DHT22;12012;51.998;7.614;2022-11-28T13:13:28;8.60;92.70
23671;DHT22;12012;51.998;7.614;2022-11-28T13:16:20;8.50;92.50
23671;DHT22;12012;51.998;7.614;2022-11-28T13:27:20;8.50;93.20
23671;DHT22;12012;51.998;7.614;2022-11-28T13:34:57;8.30;93.10
23671;DHT22;12012;51.998;7.614;2022-11-28T13:37:32;8.30;93.40
23671;DHT22;12012;51.998;7.614;2022-11-28T13:45:29;8.20;94.20
23671;DHT22;12012;51.998;7.614;2022-11-28T13:47:55;8.10;93.80
23671;DHT22;12012;51.998;7.614;2022-11-28T13:58:46;8.10;94.80
23671;DHT22;12012;51.998;7.614;2022-11-28T14:01:16;8.00;95.00
23671;DHT22;12012;51.998;7.614;2022-11-28T14:03:46;8.00;95.80
23671;DHT22;12012;51.998;7.614;2022-11-28T14:06:17;8.00;95.40
23671;DHT22;12012;51.998;7.614;2022-11-28T14:08:45;8.00;95.60
23671;DHT22;12012;51.998;7.614;2022-11-28T14:22:59;8.10;96.00
23671;DHT22;12012;51.998;7.614;2022-11-28T14:28:04;8.10;96.80
23671;DHT22;12012;51.998;7.614;2022-11-28T14:30:32;8.00;96.10
23671;DHT22;12012;51.998;7.614;2022-11-28T14:33:14;8.10;96.40
23671;DHT22;12012;51.998;7.614;2022-11-28T14:46:26;8.10;97.00
23671;DHT22;12012;51.998;7.614;2022-11-28T14:54:33;8.00;96.70
23671;DHT22;12012;51.998;7.614;2022-11-28T14:57:00;8.10;96.80
23671;DHT22;12012;51.998;7.614;2022-11-28T14:59:32;8.10;97.00
23671;DHT22;12012;51.998;7.614;2022-11-28T15:10:24;8.00;96.90
23671;DHT22;12012;51.998;7.614;2022-11-28T15:15:47;8.00;97.50
23671;DHT22;12012;51.998;7.614;2022-11-28T15:18:13;8.00;97.50
23671;DHT22;12012;51.998;7.614;2022-11-28T15:20:45;8.00;97.60
23671;DHT22;12012;51.998;7.614;2022-11-28T15:23:28;7.90;97.70
23671;DHT22;12012;51.998;7.614;2022-11-28T15:25:55;7.90;97.70
23671;DHT22;12012;51.998;7.614;2022-11-28T15:28:22;7.90;98.10
23671;DHT22;12012;51.998;7.614;2022-11-28T15:30:51;7.90;97.80
23671;DHT22;12012;51.998;7.614;2022-11-28T15:33:18;7.90;98.40
23671;DHT22;12012;51.998;7.614;2022-11-28T15:36:03;7.90;98.20
23671;DHT22;12012;51.998;7.614;2022-11-28T15:38:35;7.80;98.10
23671;DHT22;12012;51.998;7.614;2022-11-28T15:41:01;7.80;98.80
23671;DHT22;12012;51.998;7.614;2022-11-28T15:43:27;7.80;98.90
23671;DHT22;12012;51.998;7.614;2022-11-28T15:45:58;7.80;98.70
23671;DHT22;12012;51.998;7.614;2022-11-28T15:51:04;7.80;98.70
23671;DHT22;12012;51.998;7.614;2022-11-28T15:53:29;7.80;99.00
23671;DHT22;12012;51.998;7.614;2022-11-28T15:56:12;7.80;98.80
23671;DHT22;12012;51.998;7.614;2022-11-28T15:58:40;7.80;99.40
23671;DHT22;12012;51.998;7.614;2022-11-28T16:01:26;7.80;99.20
23671;DHT22;12012;51.998;7.614;2022-11-28T16:04:00;7.80;99.80
23671;DHT22;12012;51.998;7.614;2022-11-28T16:06:31;7.80;99.40
23671;DHT22;12012;51.998;7.614;2022-11-28T16:09:01;7.80;99.80
23671;DHT22;12012;51.998;7.614;2022-11-28T16:11:29;7.80;99.70
23671;DHT22;12012;51.998;7.614;2022-11-28T16:13:57;7.80;99.90
23671;DHT22;12012;51.998;7.614;2022-11-28T16:16:29;7.80;99.80
23671;DHT22;12012;51.998;7.614;2022-11-28T16:18:56;7.80;99.70
23671;DHT22;12012;51.998;7.614;2022-11-28T16:21:30;7.80;99.90
23671;DHT22;12012;51.998;7.614;2022-11-28T16:23:57;7.80;99.90
23671;DHT22;12012;51.998;7.614;2022-11-28T16:26:35;7.80;99.90
23671;DHT22;12012;51.998;7.614;2022-11-28T16:31:30;7.80;99.90
23671;DHT22;12012;51.998;7.614;2022-11-28T16:33:57;7.80;99.90
23671;DHT22;12012;51.998;7.614;2022-11-28T16:36:35;7.70;99.90
23671;DHT22;12012;51.998;7.614;2022-11-28T16:41:42;7.70;99.90
23671;DHT22;12012;51.998;7.614;2022-11-28T16:44:12;7.70;99.90
23671;DHT22;12012;51.998;7.614;2022-11-28T16:46:50;7.80;99.90
23671;DHT22;12012;51.998;7.614;2022-11-28T16:49:30;7.70;99.90
23671;DHT22;12012;51.998;7.614;2022-11-28T16:54:53;7.80;99.90
23671;DHT22;12012;51.998;7.614;2022-11-28T16:57:19;7.70;99.90
23671;DHT22;12012;51.998;7.614;2022-11-28T16:59:46;7.70;99.90
23671;DHT22;12012;51.998;7.614;2022-11-28T17:02:20;7.70;99.90
23671;DHT22;12012;51.998;7.614;2022-11-28T17:04:47;7.70;99.90
23671;DHT22;12012;51.998;7.614;2022-11-28T17:07:16;7.70;99.90
23671;DHT22;12012;51.998;7.614;2022-11-28T17:09:43;7.70;99.90
23671;DHT22;12012;51.998;7.614;2022-11-28T17:14:47;7.70;99.90
23671;DHT22;12012;51.998;7.614;2022-11-28T17:17:13;7.70;99.90
23671;DHT22;12012;51.998;7.614;2022-11-28T17:19:39;7.70;99.90
23671;DHT22;12012;51.998;7.614;2022-11-28T17:22:05;7.80;99.90
23671;DHT22;12012;51.998;7.614;2022-11-28T17:24:33;7.80;99.90
23671;DHT22;12012;51.998;7.614;2022-11-28T17:27:00;7.80;99.90
23671;DHT22;12012;51.998;7.614;2022-11-28T17:29:26;7.80;99.90
23671;DHT22;12012;51.998;7.614;2022-11-28T17:31:53;7.80;99.90
23671;DHT22;12012;51.998;7.614;2022-11-28T17:34:23;7.80;99.90
23671;DHT22;12012;51.998;7.614;2022-11-28T17:36:49;7.80;99.90
23671;DHT22;12012;51.998;7.614;2022-11-28T17:39:15;7.80;99.90
23671;DHT22;12012;51.998;7.614;2022-11-28T17:41:42;7.80;99.90
23671;DHT22;12012;51.998;7.614;2022-11-28T17:44:29;7.80;99.90
23671;DHT22;12012;51.998;7.614;2022-11-28T17:46:56;7.80;99.90
23671;DHT22;12012;51.998;7.614;2022-11-28T17:49:22;7.80;99.90
23671;DHT22;12012;51.998;7.614;2022-11-28T17:51:49;7.80;99.90
23671;DHT22;12012;51.998;7.614;2022-11-28T17:54:16;7.80;99.90
23671;DHT22;12012;51.998;7.614;2022-11-28T17:56:46;7.80;99.90
23671;DHT22;12012;51.998;7.614;2022-11-28T17:59:14;7.80;99.90
23671;DHT22;12012;51.998;7.614;2022-11-28T18:01:40;7.80;99.90
23671;DHT22;12012;51.998;7.614;2022-11-28T18:04:06;7.80;99.90
23671;DHT22;12012;51.998;7.614;2022-11-28T18:06:32;7.80;99.90
23671;DHT22;12012;51.998;7.614;2022-11-28T18:08:58;7.80;99.90
23671;DHT22;12012;51.998;7.614;2022-11-28T18:11:25;7.80;99.90
23671;DHT22;12012;51.998;7.614;2022-11-28T18:13:51;7.80;99.90
23671;DHT22;12012;51.998;7.614;2022-11-28T18:16:19;7.80;99.90
23671;DHT22;12012;51.998;7.614;2022-11-28T18:18:45;7.80;99.90
23671;DHT22;12012;51.998;7.614;2022-11-28T18:21:11;7.80;99.90
23671;DHT22;12012;51.998;7.614;2022-11-28T18:23:38;7.80;99.90
23671;DHT22;12012;51.998;7.614;2022-11-28T18:26:09;7.80;99.90
23671;DHT22;12012;51.998;7.614;2022-11-28T18:28:35;7.80;99.90
23671;DHT22;12012;51.998;7.614;2022-11-28T18:31:07;7.80;99.90
23671;DHT22;12012;51.998;7.614;2022-11-28T18:33:33;7.80;99.90
23671;DHT22;12012;51.998;7.614;2022-11-28T18:36:17;7.80;99.90
23671;DHT22;12012;51.998;7.614;2022-11-28T18:38:43;7.80;99.90
23671;DHT22;12012;51.998;7.614;2022-11-28T18:41:10;7.80;99.90
23671;DHT22;12012;51.998;7.614;2022-11-28T18:43:36;7.80;99.90
23671;DHT22;12012;51.998;7.614;2022-11-28T18:46:03;7.80;99.90
23671;DHT22;12012;51.998;7.614;2022-11-28T18:48:30;7.80;99.90
23671;DHT22;12012;51.998;7.614;2022-11-28T18:50:55;7.80;99.90
23671;DHT22;12012;51.998;7.614;2022-11-28T18:53:21;7.80;99.90
23671;DHT22;12012;51.998;7.614;2022-11-28T18:55:46;7.80;99.90
23671;DHT22;12012;51.998;7.614;2022-11-28T18:58:12;7.80;99.90
23671;DHT22;12012;51.998;7.614;2022-11-28T19:00:37;7.80;99.90
23671;DHT22;12012;51.998;7.614;2022-11-28T19:03:03;7.80;99.90
23671;DHT22;12012;51.998;7.614;2022-11-28T19:05:29;7.80;99.90
23671;DHT22;12012;51.998;7.614;2022-11-28T19:07:55;7.80;99.90
23671;DHT22;12012;51.998;7.614;2022-11-28T19:10:21;7.80;99.90
23671;DHT22;12012;51.998;7.614;2022-11-28T19:12:47;7.80;99.90
23671;DHT22;12012;51.998;7.614;2022-11-28T19:15:13;7.80;99.90
23671;DHT22;12012;51.998;7.614;2022-11-28T19:17:38;7.80;99.90
23671;DHT22;12012;51.998;7.614;2022-11-28T19:20:05;7.80;99.90
23671;DHT22;12012;51.998;7.614;2022-11-28T19:22:33;7.90;99.90
23671;DHT22;12012;51.998;7.614;2022-11-28T19:24:59;7.90;99.90
23671;DHT22;12012;51.998;7.614;2022-11-28T19:27:24;7.90;99.90
23671;DHT22;12012;51.998;7.614;2022-11-28T19:29:50;7.90;99.90
23671;DHT22;12012;51.998;7.614;2022-11-28T19:32:15;7.90;99.90
23671;DHT22;12012;51.998;7.614;2022-11-28T19:34:42;7.80;99.90